sensor_id;sensor_type;location;lat;lon;timestamp;pressure;altitude;pressure_sealevel;temperature;humidity
39487;BME280;25173;50.430;18.926;2022-08-01T00:01:55;98089.81;;;16.80;79.32
39487;BME280;25173;50.430;18.926;2022-08-01T00:04:55;98076.88;;;16.80;79.51
39487;BME280;25173;50.430;18.926;2022-08-01T00:07:56;98071.38;;;16.80;79.09
39487;BME280;25173;50.430;18.926;2022-08-01T00:10:57;98069.75;;;16.79;79.02
39487;BME280;25173;50.430;18.926;2022-08-01T00:13:57;98072.31;;;16.76;78.85
39487;BME280;25173;50.430;18.926;2022-08-01T00:16:58;98075.72;;;16.73;78.87
39487;BME280;25173;50.430;18.926;2022-08-01T00:19:59;98073.25;;;16.71;78.64
39487;BME280;25173;50.430;18.926;2022-08-01T00:23:02;98074.69;;;16.68;79.00
39487;BME280;25173;50.430;18.926;2022-08-01T00:26:03;98075.34;;;16.65;78.84
39487;BME280;25173;50.430;18.926;2022-08-01T00:29:04;98071.28;;;16.63;78.80
39487;BME280;25173;50.430;18.926;2022-08-01T00:32:04;98075.16;;;16.62;78.89
39487;BME280;25173;50.430;18.926;2022-08-01T00:35:05;98072.72;;;16.60;78.70
39487;BME280;25173;50.430;18.926;2022-08-01T00:38:06;98072.22;;;16.58;78.66
39487;BME280;25173;50.430;18.926;2022-08-01T00:41:07;98070.56;;;16.57;78.86
39487;BME280;25173;50.430;18.926;2022-08-01T00:44:08;98069.75;;;16.57;78.75
39487;BME280;25173;50.430;18.926;2022-08-01T00:47:08;98068.44;;;16.54;78.33
39487;BME280;25173;50.430;18.926;2022-08-01T00:50:10;98065.22;;;16.52;78.18
39487;BME280;25173;50.430;18.926;2022-08-01T00:53:12;98063.41;;;16.48;78.06
39487;BME280;25173;50.430;18.926;2022-08-01T00:56:13;98068.72;;;16.44;77.96
39487;BME280;25173;50.430;18.926;2022-08-01T00:59:17;98066.91;;;16.40;78.20
39487;BME280;25173;50.430;18.926;2022-08-01T01:02:18;98065.13;;;16.35;78.48
39487;BME280;25173;50.430;18.926;2022-08-01T01:05:18;98067.03;;;16.35;78.17
39487;BME280;25173;50.430;18.926;2022-08-01T01:08:24;98066.84;;;16.31;78.01
39487;BME280;25173;50.430;18.926;2022-08-01T01:11:56;98073.00;;;16.28;78.15
39487;BME280;25173;50.430;18.926;2022-08-01T01:15:22;98077.97;;;16.26;77.97
39487;BME280;25173;50.430;18.926;2022-08-01T01:18:26;98070.69;;;16.21;77.93
39487;BME280;25173;50.430;18.926;2022-08-01T01:21:35;98072.13;;;16.19;78.12
39487;BME280;25173;50.430;18.926;2022-08-01T01:28:10;98068.03;;;16.16;77.96
39487;BME280;25173;50.430;18.926;2022-08-01T01:31:14;98069.50;;;16.14;78.25
39487;BME280;25173;50.430;18.926;2022-08-01T01:34:27;98059.13;;;16.11;78.25
39487;BME280;25173;50.430;18.926;2022-08-01T01:37:29;98055.88;;;16.09;78.16
39487;BME280;25173;50.430;18.926;2022-08-01T01:40:31;98064.44;;;16.07;78.03
39487;BME280;25173;50.430;18.926;2022-08-01T01:43:33;98063.13;;;16.05;78.26
39487;BME280;25173;50.430;18.926;2022-08-01T01:46:35;98063.25;;;16.00;77.71
39487;BME280;25173;50.430;18.926;2022-08-01T01:49:37;98049.81;;;15.98;78.07
39487;BME280;25173;50.430;18.926;2022-08-01T01:52:40;98056.13;;;15.99;77.94
39487;BME280;25173;50.430;18.926;2022-08-01T01:55:45;98055.13;;;15.95;77.84
39487;BME280;25173;50.430;18.926;2022-08-01T01:58:53;98060.59;;;15.95;77.50
39487;BME280;25173;50.430;18.926;2022-08-01T02:01:57;98055.13;;;15.95;77.23
39487;BME280;25173;50.430;18.926;2022-08-01T02:04:59;98049.75;;;15.89;77.12
39487;BME280;25173;50.430;18.926;2022-08-01T02:08:01;98047.81;;;15.90;76.96
39487;BME280;25173;50.430;18.926;2022-08-01T02:11:03;98044.06;;;15.86;76.58
39487;BME280;25173;50.430;18.926;2022-08-01T02:14:20;98046.13;;;15.80;76.47
39487;BME280;25173;50.430;18.926;2022-08-01T02:17:24;98047.88;;;15.76;76.23
39487;BME280;25173;50.430;18.926;2022-08-01T02:20:29;98038.97;;;15.71;75.98
39487;BME280;25173;50.430;18.926;2022-08-01T02:23:34;98049.53;;;15.64;76.03
39487;BME280;25173;50.430;18.926;2022-08-01T02:26:39;98045.28;;;15.58;75.85
39487;BME280;25173;50.430;18.926;2022-08-01T02:29:53;98053.59;;;15.52;75.79
39487;BME280;25173;50.430;18.926;2022-08-01T02:33:01;98050.16;;;15.47;76.19
39487;BME280;25173;50.430;18.926;2022-08-01T02:36:02;98060.34;;;15.46;76.18
39487;BME280;25173;50.430;18.926;2022-08-01T02:39:08;98054.03;;;15.46;76.06
39487;BME280;25173;50.430;18.926;2022-08-01T02:42:11;98047.03;;;15.40;76.07
39487;BME280;25173;50.430;18.926;2022-08-01T02:45:13;98057.81;;;15.36;75.94
39487;BME280;25173;50.430;18.926;2022-08-01T02:48:17;98062.09;;;15.29;76.25
39487;BME280;25173;50.430;18.926;2022-08-01T02:51:19;98049.59;;;15.23;76.66
39487;BME280;25173;50.430;18.926;2022-08-01T02:54:23;98051.63;;;15.17;76.51
39487;BME280;25173;50.430;18.926;2022-08-01T02:57:25;98048.38;;;15.15;76.59
39487;BME280;25173;50.430;18.926;2022-08-01T03:00:27;98054.47;;;15.12;76.65
39487;BME280;25173;50.430;18.926;2022-08-01T03:03:29;98058.97;;;15.08;76.64
39487;BME280;25173;50.430;18.926;2022-08-01T03:06:32;98062.50;;;15.08;76.68
39487;BME280;25173;50.430;18.926;2022-08-01T03:09:36;98063.03;;;15.10;77.01
39487;BME280;25173;50.430;18.926;2022-08-01T03:12:39;98060.78;;;15.12;76.78
39487;BME280;25173;50.430;18.926;2022-08-01T03:15:41;98061.91;;;15.11;76.71
39487;BME280;25173;50.430;18.926;2022-08-01T03:18:44;98056.72;;;15.10;76.90
39487;BME280;25173;50.430;18.926;2022-08-01T03:21:47;98057.53;;;15.10;76.97
39487;BME280;25173;50.430;18.926;2022-08-01T03:24:52;98055.28;;;15.12;77.03
39487;BME280;25173;50.430;18.926;2022-08-01T03:27:58;98052.06;;;15.10;77.23
39487;BME280;25173;50.430;18.926;2022-08-01T03:31:01;98046.56;;;15.10;77.23
39487;BME280;25173;50.430;18.926;2022-08-01T03:34:03;98046.56;;;15.10;76.81
39487;BME280;25173;50.430;18.926;2022-08-01T03:37:11;98052.44;;;15.18;76.63
39487;BME280;25173;50.430;18.926;2022-08-01T03:40:17;98051.22;;;15.24;76.32
39487;BME280;25173;50.430;18.926;2022-08-01T03:43:32;98059.84;;;15.31;75.83
39487;BME280;25173;50.430;18.926;2022-08-01T03:46:44;98055.19;;;15.31;75.57
39487;BME280;25173;50.430;18.926;2022-08-01T03:49:45;98058.72;;;15.32;75.58
39487;BME280;25173;50.430;18.926;2022-08-01T03:52:48;98057.81;;;15.36;75.82
39487;BME280;25173;50.430;18.926;2022-08-01T03:55:51;98071.22;;;15.38;75.59
39487;BME280;25173;50.430;18.926;2022-08-01T03:58:54;98072.22;;;15.42;75.86
39487;BME280;25173;50.430;18.926;2022-08-01T04:01:55;98069.16;;;15.43;75.90
39487;BME280;25173;50.430;18.926;2022-08-01T04:04:56;98069.88;;;15.49;75.92
39487;BME280;25173;50.430;18.926;2022-08-01T04:07:56;98085.97;;;15.56;75.79
39487;BME280;25173;50.430;18.926;2022-08-01T04:10:59;98077.41;;;15.57;75.76
39487;BME280;25173;50.430;18.926;2022-08-01T04:14:00;98083.09;;;15.61;75.76
39487;BME280;25173;50.430;18.926;2022-08-01T04:17:00;98084.00;;;15.70;76.04
39487;BME280;25173;50.430;18.926;2022-08-01T04:20:02;98086.31;;;15.76;75.70
39487;BME280;25173;50.430;18.926;2022-08-01T04:23:03;98084.94;;;15.87;75.89
39487;BME280;25173;50.430;18.926;2022-08-01T04:26:04;98087.09;;;15.90;75.65
39487;BME280;25173;50.430;18.926;2022-08-01T04:29:06;98085.66;;;15.93;76.08
39487;BME280;25173;50.430;18.926;2022-08-01T04:32:11;98085.91;;;16.05;76.29
39487;BME280;25173;50.430;18.926;2022-08-01T04:35:15;98075.97;;;16.18;76.40
39487;BME280;25173;50.430;18.926;2022-08-01T04:38:19;98070.25;;;16.28;76.65
39487;BME280;25173;50.430;18.926;2022-08-01T04:41:22;98073.72;;;16.42;76.56
39487;BME280;25173;50.430;18.926;2022-08-01T04:44:23;98072.31;;;16.53;76.48
39487;BME280;25173;50.430;18.926;2022-08-01T04:47:25;98074.53;;;16.65;76.46
39487;BME280;25173;50.430;18.926;2022-08-01T04:50:27;98075.56;;;16.78;76.57
39487;BME280;25173;50.430;18.926;2022-08-01T04:53:28;98079.03;;;16.92;76.73
39487;BME280;25173;50.430;18.926;2022-08-01T04:56:28;98078.09;;;17.05;76.46
39487;BME280;25173;50.430;18.926;2022-08-01T04:59:30;98076.03;;;17.19;76.67
39487;BME280;25173;50.430;18.926;2022-08-01T05:02:40;98080.31;;;17.34;76.86
39487;BME280;25173;50.430;18.926;2022-08-01T05:05:41;98078.56;;;17.46;76.73
39487;BME280;25173;50.430;18.926;2022-08-01T05:08:41;98074.25;;;17.63;77.09
39487;BME280;25173;50.430;18.926;2022-08-01T05:11:42;98077.00;;;17.80;76.83
39487;BME280;25173;50.430;18.926;2022-08-01T05:14:43;98072.13;;;17.94;77.24
39487;BME280;25173;50.430;18.926;2022-08-01T05:17:45;98070.84;;;18.09;77.24
39487;BME280;25173;50.430;18.926;2022-08-01T05:20:45;98069.06;;;18.21;77.33
39487;BME280;25173;50.430;18.926;2022-08-01T05:23:47;98071.63;;;18.35;77.33
39487;BME280;25173;50.430;18.926;2022-08-01T05:26:49;98066.25;;;18.47;77.92
39487;BME280;25173;50.430;18.926;2022-08-01T05:29:50;98067.56;;;18.58;77.76
39487;BME280;25173;50.430;18.926;2022-08-01T05:32:50;98073.81;;;18.76;78.00
39487;BME280;25173;50.430;18.926;2022-08-01T05:35:51;98067.75;;;18.91;77.65
39487;BME280;25173;50.430;18.926;2022-08-01T05:38:52;98069.97;;;19.07;77.30
39487;BME280;25173;50.430;18.926;2022-08-01T05:41:52;98067.47;;;19.22;76.99
39487;BME280;25173;50.430;18.926;2022-08-01T05:44:53;98070.19;;;19.31;76.42
39487;BME280;25173;50.430;18.926;2022-08-01T05:47:54;98074.03;;;19.38;76.26
39487;BME280;25173;50.430;18.926;2022-08-01T05:50:54;98070.59;;;19.42;75.73
39487;BME280;25173;50.430;18.926;2022-08-01T05:53:57;98078.53;;;19.52;75.93
39487;BME280;25173;50.430;18.926;2022-08-01T05:56:58;98070.69;;;19.62;75.20
39487;BME280;25173;50.430;18.926;2022-08-01T06:00:02;98072.38;;;19.75;75.12
39487;BME280;25173;50.430;18.926;2022-08-01T06:03:12;98082.34;;;19.89;74.45
39487;BME280;25173;50.430;18.926;2022-08-01T06:06:14;98080.13;;;20.03;74.55
39487;BME280;25173;50.430;18.926;2022-08-01T06:09:15;98085.03;;;20.18;74.17
39487;BME280;25173;50.430;18.926;2022-08-01T06:12:15;98087.06;;;20.30;73.75
39487;BME280;25173;50.430;18.926;2022-08-01T06:15:16;98091.19;;;20.44;73.58
39487;BME280;25173;50.430;18.926;2022-08-01T06:18:17;98087.78;;;20.60;73.45
39487;BME280;25173;50.430;18.926;2022-08-01T06:21:18;98089.19;;;20.78;72.64
39487;BME280;25173;50.430;18.926;2022-08-01T06:24:18;98083.47;;;20.95;72.35
39487;BME280;25173;50.430;18.926;2022-08-01T06:27:19;98091.22;;;21.14;71.90
39487;BME280;25173;50.430;18.926;2022-08-01T06:30:20;98089.16;;;21.35;71.72
39487;BME280;25173;50.430;18.926;2022-08-01T06:33:20;98086.84;;;21.49;70.81
39487;BME280;25173;50.430;18.926;2022-08-01T06:36:21;98090.44;;;21.62;70.33
39487;BME280;25173;50.430;18.926;2022-08-01T06:39:22;98088.22;;;21.67;70.33
39487;BME280;25173;50.430;18.926;2022-08-01T06:42:22;98083.25;;;21.85;69.55
39487;BME280;25173;50.430;18.926;2022-08-01T06:45:24;98095.50;;;21.96;69.25
39487;BME280;25173;50.430;18.926;2022-08-01T06:48:26;98091.09;;;22.08;68.62
39487;BME280;25173;50.430;18.926;2022-08-01T06:51:26;98093.81;;;22.20;68.40
39487;BME280;25173;50.430;18.926;2022-08-01T06:54:27;98096.50;;;22.44;67.49
39487;BME280;25173;50.430;18.926;2022-08-01T06:57:28;98100.09;;;22.60;66.03
39487;BME280;25173;50.430;18.926;2022-08-01T07:00:29;98094.84;;;22.71;65.85
39487;BME280;25173;50.430;18.926;2022-08-01T07:03:29;98085.59;;;22.95;66.12
39487;BME280;25173;50.430;18.926;2022-08-01T07:06:30;98090.28;;;23.22;65.70
39487;BME280;25173;50.430;18.926;2022-08-01T07:09:31;98091.69;;;23.47;64.53
39487;BME280;25173;50.430;18.926;2022-08-01T07:12:32;98088.28;;;23.70;63.60
39487;BME280;25173;50.430;18.926;2022-08-01T07:15:33;98093.44;;;23.87;63.00
39487;BME280;25173;50.430;18.926;2022-08-01T07:18:34;98089.28;;;23.96;61.99
39487;BME280;25173;50.430;18.926;2022-08-01T07:21:35;98089.09;;;24.05;61.78
39487;BME280;25173;50.430;18.926;2022-08-01T07:24:35;98086.59;;;24.19;61.10
39487;BME280;25173;50.430;18.926;2022-08-01T07:27:36;98087.97;;;24.45;60.64
39487;BME280;25173;50.430;18.926;2022-08-01T07:30:37;98083.06;;;24.80;60.89
39487;BME280;25173;50.430;18.926;2022-08-01T07:33:38;98087.25;;;25.12;59.12
39487;BME280;25173;50.430;18.926;2022-08-01T07:36:38;98084.16;;;25.40;58.31
39487;BME280;25173;50.430;18.926;2022-08-01T07:39:39;98086.06;;;25.59;58.32
39487;BME280;25173;50.430;18.926;2022-08-01T07:42:40;98080.78;;;25.77;57.67
39487;BME280;25173;50.430;18.926;2022-08-01T07:45:45;98087.00;;;25.93;57.08
39487;BME280;25173;50.430;18.926;2022-08-01T07:48:45;98076.84;;;26.11;55.89
39487;BME280;25173;50.430;18.926;2022-08-01T07:51:46;98080.97;;;26.21;54.56
39487;BME280;25173;50.430;18.926;2022-08-01T07:54:47;98077.88;;;26.26;53.97
39487;BME280;25173;50.430;18.926;2022-08-01T07:57:47;98081.53;;;26.30;52.61
39487;BME280;25173;50.430;18.926;2022-08-01T08:00:48;98089.91;;;26.30;52.13
39487;BME280;25173;50.430;18.926;2022-08-01T08:03:49;98087.59;;;26.36;52.00
39487;BME280;25173;50.430;18.926;2022-08-01T08:06:51;98082.47;;;26.41;51.59
39487;BME280;25173;50.430;18.926;2022-08-01T08:09:53;98078.28;;;26.58;51.54
39487;BME280;25173;50.430;18.926;2022-08-01T08:12:54;98083.72;;;26.81;51.21
39487;BME280;25173;50.430;18.926;2022-08-01T08:15:54;98077.88;;;26.93;50.65
39487;BME280;25173;50.430;18.926;2022-08-01T08:18:56;98088.75;;;27.01;50.47
39487;BME280;25173;50.430;18.926;2022-08-01T08:21:56;98087.63;;;27.10;50.22
39487;BME280;25173;50.430;18.926;2022-08-01T08:24:57;98085.66;;;27.14;49.72
39487;BME280;25173;50.430;18.926;2022-08-01T08:27:58;98097.97;;;27.05;48.98
39487;BME280;25173;50.430;18.926;2022-08-01T08:30:58;98096.97;;;26.87;48.85
39487;BME280;25173;50.430;18.926;2022-08-01T08:33:59;98092.19;;;26.88;49.66
39487;BME280;25173;50.430;18.926;2022-08-01T08:36:59;98088.63;;;26.91;49.20
39487;BME280;25173;50.430;18.926;2022-08-01T08:40:00;98098.81;;;26.73;49.23
39487;BME280;25173;50.430;18.926;2022-08-01T08:43:02;98095.50;;;26.63;48.81
39487;BME280;25173;50.430;18.926;2022-08-01T08:46:05;98098.03;;;26.42;48.97
39487;BME280;25173;50.430;18.926;2022-08-01T08:49:08;98105.97;;;26.40;50.07
39487;BME280;25173;50.430;18.926;2022-08-01T08:52:10;98111.56;;;26.40;49.85
39487;BME280;25173;50.430;18.926;2022-08-01T08:55:12;98108.22;;;26.27;50.01
39487;BME280;25173;50.430;18.926;2022-08-01T08:58:17;98112.38;;;26.41;49.86
39487;BME280;25173;50.430;18.926;2022-08-01T09:01:18;98112.19;;;26.56;49.78
39487;BME280;25173;50.430;18.926;2022-08-01T09:04:21;98104.69;;;26.64;50.92
39487;BME280;25173;50.430;18.926;2022-08-01T09:07:25;98113.31;;;26.85;50.01
39487;BME280;25173;50.430;18.926;2022-08-01T09:10:26;98114.22;;;26.93;49.50
39487;BME280;25173;50.430;18.926;2022-08-01T09:13:27;98116.81;;;26.79;48.75
39487;BME280;25173;50.430;18.926;2022-08-01T09:16:28;98113.19;;;26.75;49.49
39487;BME280;25173;50.430;18.926;2022-08-01T09:19:38;98116.47;;;26.84;49.16
39487;BME280;25173;50.430;18.926;2022-08-01T09:22:39;98123.47;;;27.00;49.40
39487;BME280;25173;50.430;18.926;2022-08-01T09:25:52;98118.00;;;27.11;47.91
39487;BME280;25173;50.430;18.926;2022-08-01T09:28:57;98119.94;;;27.07;48.81
39487;BME280;25173;50.430;18.926;2022-08-01T09:32:05;98118.09;;;27.22;48.60
39487;BME280;25173;50.430;18.926;2022-08-01T09:35:30;98115.81;;;27.34;48.22
39487;BME280;25173;50.430;18.926;2022-08-01T09:38:35;98117.09;;;27.44;48.90
39487;BME280;25173;50.430;18.926;2022-08-01T09:41:36;98114.75;;;27.50;48.54
39487;BME280;25173;50.430;18.926;2022-08-01T09:44:46;98116.88;;;27.60;48.20
39487;BME280;25173;50.430;18.926;2022-08-01T09:47:47;98117.75;;;27.71;48.00
39487;BME280;25173;50.430;18.926;2022-08-01T09:50:50;98109.03;;;27.83;47.47
39487;BME280;25173;50.430;18.926;2022-08-01T09:53:51;98117.50;;;27.90;48.37
39487;BME280;25173;50.430;18.926;2022-08-01T09:56:51;98120.75;;;28.03;47.65
39487;BME280;25173;50.430;18.926;2022-08-01T10:04:09;98118.22;;;27.80;47.23
39487;BME280;25173;50.430;18.926;2022-08-01T10:07:10;98124.13;;;27.68;48.12
39487;BME280;25173;50.430;18.926;2022-08-01T10:10:13;98118.63;;;27.78;48.14
39487;BME280;25173;50.430;18.926;2022-08-01T10:13:14;98112.84;;;27.57;46.96
39487;BME280;25173;50.430;18.926;2022-08-01T10:16:15;98102.53;;;27.68;47.91
39487;BME280;25173;50.430;18.926;2022-08-01T10:19:18;98097.22;;;28.07;47.78
39487;BME280;25173;50.430;18.926;2022-08-01T10:22:22;98111.00;;;28.41;47.43
39487;BME280;25173;50.430;18.926;2022-08-01T10:25:27;98107.88;;;28.53;46.19
39487;BME280;25173;50.430;18.926;2022-08-01T10:28:29;98107.91;;;28.67;46.25
39487;BME280;25173;50.430;18.926;2022-08-01T10:31:31;98108.00;;;28.85;46.74
39487;BME280;25173;50.430;18.926;2022-08-01T10:34:33;98108.38;;;28.83;45.82
39487;BME280;25173;50.430;18.926;2022-08-01T10:37:35;98101.97;;;28.79;45.87
39487;BME280;25173;50.430;18.926;2022-08-01T10:40:37;98107.47;;;28.62;45.26
39487;BME280;25173;50.430;18.926;2022-08-01T10:43:37;98108.25;;;28.51;45.71
39487;BME280;25173;50.430;18.926;2022-08-01T10:46:44;98109.84;;;28.49;45.98
39487;BME280;25173;50.430;18.926;2022-08-01T10:49:51;98102.69;;;28.69;46.08
39487;BME280;25173;50.430;18.926;2022-08-01T10:53:07;98106.41;;;28.91;45.68
39487;BME280;25173;50.430;18.926;2022-08-01T10:56:09;98104.78;;;28.79;45.51
39487;BME280;25173;50.430;18.926;2022-08-01T10:59:15;98107.53;;;28.72;45.83
39487;BME280;25173;50.430;18.926;2022-08-01T11:02:29;98105.47;;;28.62;45.44
39487;BME280;25173;50.430;18.926;2022-08-01T11:05:32;98106.16;;;28.31;46.09
39487;BME280;25173;50.430;18.926;2022-08-01T11:08:37;98109.19;;;28.04;46.79
39487;BME280;25173;50.430;18.926;2022-08-01T11:11:57;98119.63;;;28.11;46.47
39487;BME280;25173;50.430;18.926;2022-08-01T11:18:01;98118.91;;;28.25;46.90
39487;BME280;25173;50.430;18.926;2022-08-01T11:21:03;98115.78;;;28.33;46.97
39487;BME280;25173;50.430;18.926;2022-08-01T11:24:04;98106.63;;;28.47;46.53
39487;BME280;25173;50.430;18.926;2022-08-01T11:27:19;98111.88;;;28.52;46.47
39487;BME280;25173;50.430;18.926;2022-08-01T11:30:22;98108.16;;;28.34;46.71
39487;BME280;25173;50.430;18.926;2022-08-01T11:36:42;98100.94;;;28.33;47.52
39487;BME280;25173;50.430;18.926;2022-08-01T11:39:42;98102.25;;;28.53;46.45
39487;BME280;25173;50.430;18.926;2022-08-01T11:42:43;98098.63;;;28.49;46.46
39487;BME280;25173;50.430;18.926;2022-08-01T11:45:54;98110.28;;;28.62;45.15
39487;BME280;25173;50.430;18.926;2022-08-01T11:52:33;98086.78;;;28.94;45.20
39487;BME280;25173;50.430;18.926;2022-08-01T11:55:35;98094.03;;;29.10;44.88
39487;BME280;25173;50.430;18.926;2022-08-01T11:58:36;98094.81;;;29.21;44.91
39487;BME280;25173;50.430;18.926;2022-08-01T12:01:37;98094.50;;;29.47;44.97
39487;BME280;25173;50.430;18.926;2022-08-01T12:05:04;98095.28;;;29.51;44.67
39487;BME280;25173;50.430;18.926;2022-08-01T12:08:05;98091.28;;;29.59;44.71
39487;BME280;25173;50.430;18.926;2022-08-01T12:11:06;98082.84;;;29.70;44.58
39487;BME280;25173;50.430;18.926;2022-08-01T12:14:06;98086.84;;;29.72;44.86
39487;BME280;25173;50.430;18.926;2022-08-01T12:17:07;98094.47;;;29.68;44.44
39487;BME280;25173;50.430;18.926;2022-08-01T12:20:10;98079.25;;;29.48;45.10
39487;BME280;25173;50.430;18.926;2022-08-01T12:23:14;98078.06;;;29.49;45.69
39487;BME280;25173;50.430;18.926;2022-08-01T12:26:16;98080.00;;;29.27;45.44
39487;BME280;25173;50.430;18.926;2022-08-01T12:29:39;98072.41;;;29.24;45.11
39487;BME280;25173;50.430;18.926;2022-08-01T12:32:42;98076.00;;;29.25;45.69
39487;BME280;25173;50.430;18.926;2022-08-01T12:35:43;98078.44;;;29.51;45.86
39487;BME280;25173;50.430;18.926;2022-08-01T12:38:43;98076.44;;;29.69;44.57
39487;BME280;25173;50.430;18.926;2022-08-01T12:41:45;98075.19;;;29.88;44.81
39487;BME280;25173;50.430;18.926;2022-08-01T12:44:48;98068.78;;;29.81;45.14
39487;BME280;25173;50.430;18.926;2022-08-01T12:47:52;98074.41;;;29.73;45.45
39487;BME280;25173;50.430;18.926;2022-08-01T12:50:54;98065.22;;;29.55;45.35
39487;BME280;25173;50.430;18.926;2022-08-01T12:54:00;98067.63;;;29.64;45.30
39487;BME280;25173;50.430;18.926;2022-08-01T12:57:01;98073.59;;;29.91;45.37
39487;BME280;25173;50.430;18.926;2022-08-01T13:03:20;98068.03;;;31.44;43.22
39487;BME280;25173;50.430;18.926;2022-08-01T13:06:21;98075.53;;;32.02;42.04
39487;BME280;25173;50.430;18.926;2022-08-01T13:09:21;98064.63;;;32.45;41.60
39487;BME280;25173;50.430;18.926;2022-08-01T13:12:22;98056.28;;;32.68;41.64
39487;BME280;25173;50.430;18.926;2022-08-01T13:15:42;98063.22;;;32.91;38.78
39487;BME280;25173;50.430;18.926;2022-08-01T13:18:55;98061.44;;;32.43;39.63
39487;BME280;25173;50.430;18.926;2022-08-01T13:21:57;98065.91;;;32.71;40.80
39487;BME280;25173;50.430;18.926;2022-08-01T13:25:14;98055.75;;;32.77;39.99
39487;BME280;25173;50.430;18.926;2022-08-01T13:28:21;98062.56;;;32.80;40.35
39487;BME280;25173;50.430;18.926;2022-08-01T13:31:32;98058.69;;;32.66;39.39
39487;BME280;25173;50.430;18.926;2022-08-01T13:34:33;98059.63;;;32.56;40.88
39487;BME280;25173;50.430;18.926;2022-08-01T13:37:35;98066.31;;;33.00;40.77
39487;BME280;25173;50.430;18.926;2022-08-01T13:40:36;98059.91;;;33.26;40.04
39487;BME280;25173;50.430;18.926;2022-08-01T13:43:37;98053.75;;;33.31;40.17
39487;BME280;25173;50.430;18.926;2022-08-01T13:46:38;98055.91;;;33.47;40.07
39487;BME280;25173;50.430;18.926;2022-08-01T13:49:39;98047.75;;;33.52;40.01
39487;BME280;25173;50.430;18.926;2022-08-01T13:52:40;98049.00;;;33.75;39.17
39487;BME280;25173;50.430;18.926;2022-08-01T13:55:40;98046.50;;;34.00;38.55
39487;BME280;25173;50.430;18.926;2022-08-01T13:58:41;98053.16;;;33.90;37.69
39487;BME280;25173;50.430;18.926;2022-08-01T14:01:42;98044.38;;;33.11;38.38
39487;BME280;25173;50.430;18.926;2022-08-01T14:04:43;98050.69;;;32.61;39.95
39487;BME280;25173;50.430;18.926;2022-08-01T14:07:43;98054.34;;;32.28;40.36
39487;BME280;25173;50.430;18.926;2022-08-01T14:10:45;98048.47;;;31.74;41.67
39487;BME280;25173;50.430;18.926;2022-08-01T14:13:45;98059.13;;;30.94;43.51
39487;BME280;25173;50.430;18.926;2022-08-01T14:16:46;98070.38;;;29.96;48.17
39487;BME280;25173;50.430;18.926;2022-08-01T14:19:47;98065.44;;;27.82;52.27
39487;BME280;25173;50.430;18.926;2022-08-01T14:22:48;98048.81;;;26.01;58.44
39487;BME280;25173;50.430;18.926;2022-08-01T14:25:48;98057.91;;;25.41;64.61
39487;BME280;25173;50.430;18.926;2022-08-01T14:28:49;98059.56;;;25.72;70.00
39487;BME280;25173;50.430;18.926;2022-08-01T14:31:50;98065.97;;;26.29;66.72
39487;BME280;25173;50.430;18.926;2022-08-01T14:34:50;98065.88;;;26.55;64.17
39487;BME280;25173;50.430;18.926;2022-08-01T14:37:51;98062.25;;;26.88;64.89
39487;BME280;25173;50.430;18.926;2022-08-01T14:40:52;98063.25;;;27.54;60.87
39487;BME280;25173;50.430;18.926;2022-08-01T14:43:53;98065.28;;;28.15;56.77
39487;BME280;25173;50.430;18.926;2022-08-01T14:46:54;98063.53;;;28.87;54.17
39487;BME280;25173;50.430;18.926;2022-08-01T14:49:55;98064.81;;;29.64;51.23
39487;BME280;25173;50.430;18.926;2022-08-01T14:52:55;98077.97;;;30.13;48.17
39487;BME280;25173;50.430;18.926;2022-08-01T14:55:56;98062.03;;;30.79;47.31
39487;BME280;25173;50.430;18.926;2022-08-01T14:58:57;98070.63;;;31.24;45.34
39487;BME280;25173;50.430;18.926;2022-08-01T15:01:59;98071.88;;;31.71;45.09
39487;BME280;25173;50.430;18.926;2022-08-01T15:04:59;98075.44;;;32.13;44.11
39487;BME280;25173;50.430;18.926;2022-08-01T15:08:00;98084.94;;;31.88;43.04
39487;BME280;25173;50.430;18.926;2022-08-01T15:11:01;98079.16;;;31.10;43.16
39487;BME280;25173;50.430;18.926;2022-08-01T15:14:02;98081.38;;;30.74;43.39
39487;BME280;25173;50.430;18.926;2022-08-01T15:17:24;98071.41;;;30.59;44.23
39487;BME280;25173;50.430;18.926;2022-08-01T15:20:25;98081.78;;;30.69;43.83
39487;BME280;25173;50.430;18.926;2022-08-01T15:23:27;98075.97;;;31.04;44.43
39487;BME280;25173;50.430;18.926;2022-08-01T15:26:28;98071.88;;;31.68;43.06
39487;BME280;25173;50.430;18.926;2022-08-01T15:29:30;98074.84;;;32.62;42.09
39487;BME280;25173;50.430;18.926;2022-08-01T15:32:30;98069.13;;;33.53;40.35
39487;BME280;25173;50.430;18.926;2022-08-01T15:35:31;98071.94;;;33.53;39.75
39487;BME280;25173;50.430;18.926;2022-08-01T15:38:32;98062.78;;;32.92;39.82
39487;BME280;25173;50.430;18.926;2022-08-01T15:41:32;98073.31;;;32.24;40.55
39487;BME280;25173;50.430;18.926;2022-08-01T15:44:33;98068.88;;;31.41;41.19
39487;BME280;25173;50.430;18.926;2022-08-01T15:47:34;98075.75;;;30.74;42.09
39487;BME280;25173;50.430;18.926;2022-08-01T15:50:35;98079.13;;;30.30;42.98
39487;BME280;25173;50.430;18.926;2022-08-01T15:53:37;98088.44;;;29.95;44.55
39487;BME280;25173;50.430;18.926;2022-08-01T15:56:39;98079.25;;;29.41;45.60
39487;BME280;25173;50.430;18.926;2022-08-01T15:59:40;98070.75;;;28.91;46.68
39487;BME280;25173;50.430;18.926;2022-08-01T16:02:40;98083.81;;;28.48;47.38
39487;BME280;25173;50.430;18.926;2022-08-01T16:05:41;98076.41;;;28.08;48.33
39487;BME280;25173;50.430;18.926;2022-08-01T16:08:43;98098.56;;;27.69;49.00
39487;BME280;25173;50.430;18.926;2022-08-01T16:11:44;98090.97;;;27.26;50.18
39487;BME280;25173;50.430;18.926;2022-08-01T16:14:45;98081.09;;;26.95;51.08
39487;BME280;25173;50.430;18.926;2022-08-01T16:17:45;98082.53;;;26.82;51.50